createdAt,value
2016-11-04T00:03:00.285Z,0
2016-11-04T00:06:37.908Z,0
2016-11-04T00:10:14.381Z,0
2016-11-04T00:13:51.493Z,0
2016-11-04T00:17:28.007Z,0
2016-11-04T00:21:11.508Z,0
2016-11-04T00:24:51.433Z,0
2016-11-04T00:28:35.482Z,0
2016-11-04T00:32:39.214Z,0
2016-11-04T00:36:46.318Z,0
2016-11-04T00:40:23.443Z,0
2016-11-04T00:44:01.399Z,0
2016-11-04T00:47:39.050Z,0
2016-11-04T00:51:16.443Z,0
2016-11-04T00:54:53.228Z,0
2016-11-04T00:58:29.916Z,0
2016-11-04T01:02:07.281Z,0
2016-11-04T01:05:44.536Z,0
2016-11-04T01:09:21.527Z,0
2016-11-04T01:12:58.243Z,0
2016-11-04T01:16:35.272Z,0
2016-11-04T01:20:12.591Z,0
2016-11-04T01:23:49.608Z,0
2016-11-04T01:27:26.361Z,0
2016-11-04T01:31:03.478Z,0
2016-11-04T01:35:38.407Z,0
2016-11-04T01:39:15.029Z,0
2016-11-04T01:42:51.093Z,0
2016-11-04T01:46:28.183Z,0
2016-11-04T01:50:04.638Z,0
2016-11-04T01:53:42.022Z,0
2016-11-04T01:57:18.296Z,0
2016-11-04T02:00:54.537Z,0
2016-11-04T02:04:30.642Z,0
2016-11-04T02:08:07.395Z,0
2016-11-04T02:11:43.960Z,0
2016-11-04T02:15:01.438Z,0
2016-11-04T02:18:37.588Z,0
2016-11-04T02:22:14.585Z,0
2016-11-04T02:25:51.110Z,0
2016-11-04T02:35:01.777Z,0
2016-11-04T02:38:37.957Z,0
2016-11-04T02:42:09.684Z,0
2016-11-04T02:45:27.105Z,0
2016-11-04T02:49:04.808Z,0
2016-11-04T02:52:41.103Z,0
2016-11-04T02:56:52.178Z,0
2016-11-04T03:00:28.190Z,0
2016-11-04T03:04:04.444Z,0
2016-11-04T03:07:41.221Z,0
2016-11-04T03:11:17.698Z,0
2016-11-04T03:14:55.717Z,0
2016-11-04T03:19:05.077Z,0
2016-11-04T03:22:39.246Z,0
2016-11-04T03:26:16.353Z,0
2016-11-04T03:29:54.470Z,0
2016-11-04T03:34:24.002Z,0
2016-11-04T03:38:11.207Z,0
2016-11-04T03:41:47.860Z,0
2016-11-04T03:45:23.790Z,0
2016-11-04T03:49:00.580Z,0
2016-11-04T03:52:38.233Z,0
2016-11-04T03:56:15.358Z,0
2016-11-04T03:59:51.611Z,0
2016-11-04T04:03:57.484Z,0
2016-11-04T04:07:33.715Z,0
2016-11-04T04:11:10.580Z,0
2016-11-04T04:14:47.142Z,0
2016-11-04T04:18:23.585Z,0
2016-11-04T04:22:00.157Z,0
2016-11-04T04:25:36.995Z,0
2016-11-04T04:29:13.478Z,0
2016-11-04T04:32:50.517Z,0
2016-11-04T04:36:31.609Z,0
2016-11-04T04:40:09.673Z,0
2016-11-04T04:44:10.125Z,0
2016-11-04T04:47:47.053Z,0
2016-11-04T04:51:24.150Z,0
2016-11-04T04:55:04.473Z,0
2016-11-04T04:58:45.495Z,0
2016-11-04T05:02:23.762Z,0
2016-11-04T05:06:00.719Z,0
2016-11-04T05:09:38.385Z,0
2016-11-04T05:13:36.307Z,0
2016-11-04T05:17:13.215Z,0
2016-11-04T05:20:50.632Z,0
2016-11-04T05:24:28.048Z,0
2016-11-04T05:28:05.756Z,0
2016-11-04T05:31:43.813Z,0
2016-11-04T05:35:21.235Z,0
2016-11-04T05:38:58.306Z,0
2016-11-04T05:42:34.688Z,0
2016-11-04T05:46:11.261Z,0
2016-11-04T05:49:48.071Z,0
2016-11-04T05:53:24.896Z,0
2016-11-04T05:57:01.764Z,0
2016-11-04T06:00:38.870Z,0
2016-11-04T06:04:15.959Z,0
2016-11-04T06:07:53.652Z,0
2016-11-04T06:11:29.913Z,0
2016-11-04T06:15:02.684Z,0
2016-11-04T06:18:19.760Z,0
2016-11-04T06:21:56.621Z,5
2016-11-04T06:25:32.540Z,5
2016-11-04T06:29:10.809Z,5
2016-11-04T06:32:47.222Z,5
2016-11-04T06:36:23.803Z,10
2016-11-04T06:40:01.757Z,15
2016-11-04T06:43:38.689Z,15
2016-11-04T06:47:15.338Z,15
2016-11-04T06:50:52.050Z,15
2016-11-04T06:54:29.212Z,20
2016-11-04T06:58:06.763Z,25
2016-11-04T07:01:44.360Z,30
2016-11-04T07:05:21.125Z,30
2016-11-04T07:08:57.859Z,35
2016-11-04T07:12:34.057Z,35
2016-11-04T07:16:10.692Z,40
2016-11-04T07:20:15.919Z,45
2016-11-04T07:54:39.801Z,85
2016-11-04T07:58:11.956Z,85
2016-11-04T08:01:44.386Z,85
2016-11-04T08:05:01.869Z,85
2016-11-04T08:08:34.015Z,90
2016-11-04T08:11:51.277Z,100
2016-11-04T08:15:23.252Z,110
2016-11-04T08:18:55.000Z,110
2016-11-04T08:22:26.645Z,125
2016-11-04T08:26:13.288Z,130
2016-11-04T08:29:30.128Z,115
2016-11-04T08:33:16.622Z,100
2016-11-04T08:36:48.946Z,80
2016-11-04T08:40:20.533Z,80
2016-11-04T08:43:53.002Z,95
2016-11-04T08:47:25.380Z,75
2016-11-04T08:51:12.501Z,55
2016-11-04T08:54:58.881Z,70
2016-11-04T08:58:59.914Z,85
2016-11-04T09:02:31.569Z,110
2016-11-04T09:05:48.863Z,130
2016-11-04T09:09:05.692Z,120
2016-11-04T09:12:23.461Z,115
2016-11-04T09:15:40.704Z,125
2016-11-04T09:18:58.559Z,115
2016-11-04T09:22:30.088Z,105
2016-11-04T09:25:47.795Z,110
2016-11-04T09:29:04.267Z,120
2016-11-04T09:32:22.414Z,115
2016-11-04T09:36:08.484Z,125
2016-11-04T09:39:40.418Z,120
2016-11-04T09:42:57.619Z,110
2016-11-04T09:46:15.440Z,110
2016-11-04T09:49:33.028Z,130
2016-11-04T09:52:49.906Z,145
2016-11-04T09:56:07.816Z,160
2016-11-04T09:59:24.883Z,165
2016-11-04T10:02:42.154Z,165
2016-11-04T10:05:59.101Z,165
2016-11-04T10:09:16.024Z,165
2016-11-04T10:12:33.006Z,160
2016-11-04T10:15:51.544Z,165
2016-11-04T10:19:08.914Z,165
2016-11-04T10:22:25.774Z,170
2016-11-04T10:25:43.128Z,170
2016-11-04T10:28:59.908Z,170
2016-11-04T10:32:17.277Z,170
2016-11-04T10:35:34.034Z,175
2016-11-04T10:38:50.903Z,170
2016-11-04T10:42:07.740Z,155
2016-11-04T10:45:25.071Z,145
2016-11-04T10:48:42.331Z,130
2016-11-04T10:51:59.090Z,120
2016-11-04T10:55:16.017Z,115
2016-11-04T10:58:32.965Z,115
2016-11-04T11:01:49.911Z,120
2016-11-04T11:05:07.016Z,125
2016-11-04T11:08:23.825Z,135
2016-11-04T11:11:41.041Z,130
2016-11-04T11:14:57.778Z,140
2016-11-04T11:18:15.025Z,135
2016-11-04T11:21:31.655Z,140
2016-11-04T11:24:48.834Z,145
2016-11-04T11:28:05.572Z,150
2016-11-04T11:31:22.597Z,160
2016-11-04T11:34:39.084Z,170
2016-11-04T11:37:56.015Z,170
2016-11-04T11:41:12.766Z,170
2016-11-04T11:44:29.691Z,155
2016-11-04T11:47:46.668Z,140
2016-11-04T11:51:03.832Z,145
2016-11-04T11:54:20.661Z,130
2016-11-04T11:57:37.922Z,140
2016-11-04T12:00:54.439Z,140
2016-11-04T12:04:11.960Z,130
2016-11-04T12:07:28.957Z,125
2016-11-04T12:10:46.076Z,110
2016-11-04T12:14:02.439Z,105
2016-11-04T12:17:19.726Z,105
2016-11-04T12:20:51.092Z,110
2016-11-04T12:24:08.472Z,105
2016-11-04T12:27:25.585Z,110
2016-11-04T12:30:42.834Z,110
2016-11-04T12:33:59.517Z,115
2016-11-04T12:37:17.118Z,120
2016-11-04T12:40:33.855Z,125
2016-11-04T12:43:51.168Z,130
2016-11-04T12:51:24.781Z,120
2016-11-04T12:54:42.118Z,120
2016-11-04T12:58:00.638Z,120
2016-11-04T13:01:47.135Z,120
2016-11-04T13:05:03.879Z,115
2016-11-04T13:08:21.012Z,110
2016-11-04T13:11:38.649Z,100
2016-11-04T13:29:26.015Z,100
2016-11-04T13:33:12.125Z,95
2016-11-04T13:36:29.687Z,90
2016-11-04T13:39:46.452Z,95
2016-11-04T13:43:03.324Z,90
2016-11-04T13:46:20.236Z,90
2016-11-04T13:49:37.269Z,80
2016-11-04T13:53:37.960Z,75
2016-11-04T13:57:10.569Z,75
2016-11-04T14:00:27.309Z,75
2016-11-04T14:03:44.730Z,75
2016-11-04T14:07:01.826Z,75
2016-11-04T14:10:18.919Z,70
2016-11-04T14:13:36.080Z,70
2016-11-04T14:16:53.714Z,65
2016-11-04T14:20:10.797Z,65
2016-11-04T14:23:28.462Z,70
2016-11-04T14:26:45.830Z,75
2016-11-04T14:30:02.958Z,70
2016-11-04T14:33:19.869Z,55
2016-11-04T14:36:36.608Z,50
2016-11-04T14:39:53.313Z,55
2016-11-04T14:43:10.952Z,50
2016-11-04T14:46:27.691Z,55
2016-11-04T14:49:44.921Z,50
2016-11-04T14:53:02.444Z,45
2016-11-04T14:56:20.160Z,35
2016-11-04T14:59:37.599Z,30
2016-11-04T15:02:55.014Z,30
2016-11-04T15:06:11.966Z,30
2016-11-04T15:09:29.021Z,30
2016-11-04T15:12:46.257Z,30
2016-11-04T15:16:03.158Z,25
2016-11-04T15:19:20.309Z,20
2016-11-04T15:23:07.005Z,15
2016-11-04T15:26:38.674Z,15
2016-11-04T15:29:56.146Z,15
2016-11-04T15:33:42.595Z,15
2016-11-04T15:37:14.605Z,10
2016-11-04T15:41:01.007Z,5
2016-11-04T15:44:18.306Z,5
2016-11-04T15:47:35.277Z,5
2016-11-04T15:50:51.996Z,0
2016-11-04T15:54:12.820Z,0
2016-11-04T15:57:31.730Z,0
2016-11-04T16:00:49.449Z,0
2016-11-04T16:04:07.814Z,0
2016-11-04T16:37:35.286Z,0
2016-11-04T16:41:15.217Z,0
2016-11-04T16:44:52.444Z,0
2016-11-04T16:48:29.644Z,0
2016-11-04T16:52:07.132Z,0
2016-11-04T16:55:43.448Z,0
2016-11-04T16:59:21.040Z,0
2016-11-04T17:02:57.682Z,0
2016-11-04T17:06:33.994Z,0
2016-11-04T17:10:11.874Z,0
2016-11-04T17:13:48.483Z,0
2016-11-04T17:17:24.830Z,0
2016-11-04T17:21:01.894Z,0
2016-11-04T17:25:08.262Z,0
2016-11-04T17:29:38.127Z,0
2016-11-04T17:33:49.232Z,0
2016-11-04T17:37:25.809Z,0
2016-11-04T17:40:42.542Z,0
2016-11-04T17:44:19.233Z,0
2016-11-04T17:48:22.879Z,0
2016-11-04T17:52:02.470Z,0
2016-11-04T17:55:38.409Z,0
2016-11-04T17:59:15.902Z,0
2016-11-04T18:02:51.665Z,0
2016-11-04T18:06:29.146Z,0
2016-11-04T18:10:05.179Z,0
2016-11-04T18:13:42.615Z,0
2016-11-04T18:33:39.452Z,0
2016-11-04T18:41:59.181Z,0
2016-11-04T18:45:35.197Z,0
2016-11-04T18:48:52.181Z,0
2016-11-04T18:52:27.807Z,0
2016-11-04T18:56:04.176Z,0
2016-11-04T18:59:40.752Z,0
2016-11-04T19:03:17.849Z,0
2016-11-04T19:15:41.957Z,0
2016-11-04T19:19:17.678Z,0
2016-11-04T19:22:55.676Z,0
2016-11-04T19:26:31.852Z,0
2016-11-04T19:30:09.691Z,0
2016-11-04T19:33:47.427Z,0
2016-11-04T19:37:23.946Z,0
2016-11-04T19:41:00.307Z,0
2016-11-04T19:44:36.363Z,0
2016-11-04T19:48:12.655Z,0
2016-11-04T19:51:50.168Z,0
2016-11-04T19:55:26.344Z,0
2016-11-04T19:59:04.296Z,0
2016-11-04T20:02:40.095Z,0
2016-11-04T20:06:17.876Z,0
2016-11-04T20:09:54.341Z,0
2016-11-04T20:13:33.852Z,0
2016-11-04T20:17:31.221Z,0
2016-11-04T20:21:08.111Z,0
2016-11-04T20:24:24.929Z,0
2016-11-04T20:28:24.697Z,0
2016-11-04T20:32:09.354Z,0
2016-11-04T20:35:46.736Z,0
2016-11-04T20:39:23.840Z,0
2016-11-04T20:43:21.022Z,0
2016-11-04T20:56:57.128Z,0
2016-11-04T21:00:33.675Z,0
2016-11-04T21:04:10.362Z,0
2016-11-04T21:08:47.893Z,0
2016-11-04T21:12:23.861Z,0
2016-11-04T21:16:28.086Z,0
2016-11-04T21:24:04.989Z,0
2016-11-04T21:27:22.664Z,0
2016-11-04T21:31:00.081Z,0
2016-11-04T21:34:36.045Z,0
2016-11-04T21:38:12.889Z,0
2016-11-04T21:42:17.316Z,0
2016-11-04T21:46:22.653Z,0
2016-11-04T21:49:58.663Z,0
2016-11-04T21:53:30.830Z,0
2016-11-04T22:26:35.251Z,0
2016-11-04T22:30:39.931Z,0
2016-11-04T22:40:24.451Z,0
2016-11-04T22:43:41.515Z,0
2016-11-04T22:46:58.462Z,0
2016-11-04T22:50:16.216Z,0
2016-11-04T22:53:32.709Z,0
2016-11-04T22:56:50.530Z,0
2016-11-04T23:00:07.272Z,0
2016-11-04T23:03:24.604Z,0
2016-11-04T23:06:41.353Z,0
2016-11-04T23:09:58.849Z,0
2016-11-04T23:13:16.730Z,0
2016-11-04T23:16:34.112Z,0
2016-11-04T23:19:50.856Z,0
2016-11-04T23:23:08.185Z,0
2016-11-04T23:26:25.055Z,0
2016-11-04T23:29:41.971Z,0
2016-11-04T23:32:59.127Z,0
2016-11-04T23:36:15.765Z,0
2016-11-04T23:39:32.612Z,0
2016-11-04T23:42:49.560Z,0
2016-11-04T23:46:06.076Z,0
2016-11-04T23:49:22.961Z,0
2016-11-04T23:52:39.767Z,0
2016-11-04T23:55:56.779Z,0
2016-11-04T23:59:13.619Z,0
